createdAt,value
2022-08-17T00:01:11.021Z,4.04
2022-08-17T00:02:46.360Z,4.02
2022-08-17T00:04:22.690Z,4.04
2022-08-17T00:05:59.034Z,4.04
2022-08-17T00:07:35.357Z,4.04
2022-08-17T00:09:11.687Z,4.04
2022-08-17T00:10:48.016Z,4.04
2022-08-17T00:12:24.347Z,4.02
2022-08-17T00:14:00.703Z,4.02
2022-08-17T00:15:37.012Z,4.04
2022-08-17T00:17:13.340Z,4.04
2022-08-17T00:18:49.665Z,4.04
2022-08-17T00:20:25.999Z,4.04
2022-08-17T00:22:02.333Z,4.04
2022-08-17T00:23:38.662Z,4.04
2022-08-17T00:25:14.011Z,4.02
2022-08-17T00:26:50.338Z,4.02
2022-08-17T00:28:26.671Z,4.04
2022-08-17T00:30:03.004Z,4.04
2022-08-17T00:31:39.331Z,4.02
2022-08-17T00:33:15.658Z,4.02
2022-08-17T00:34:51.989Z,4.04
2022-08-17T00:36:28.323Z,4.02
2022-08-17T00:38:04.653Z,4.04
2022-08-17T00:39:40.989Z,4.02
2022-08-17T00:41:17.308Z,4.02
2022-08-17T00:42:53.656Z,4.02
2022-08-17T00:44:29.986Z,4.02
2022-08-17T00:46:05.322Z,4.04
2022-08-17T00:47:41.656Z,4.02
2022-08-17T00:49:17.988Z,4.02
2022-08-17T00:50:53.332Z,4.02
2022-08-17T00:52:29.687Z,4.04
2022-08-17T00:54:05.999Z,4.02
2022-08-17T00:55:42.324Z,4.02
2022-08-17T00:57:18.662Z,4.02
2022-08-17T00:58:54.989Z,4.02
2022-08-17T01:00:31.319Z,4.02
2022-08-17T01:02:07.650Z,4.02
2022-08-17T01:03:43.977Z,4.02
2022-08-17T01:05:20.313Z,4.02
2022-08-17T01:06:56.645Z,4.02
2022-08-17T01:08:32.975Z,4.02
2022-08-17T01:10:09.310Z,4.02
2022-08-17T01:11:44.651Z,4.02
2022-08-17T01:13:20.978Z,4.04
2022-08-17T01:14:57.311Z,4.02
2022-08-17T01:16:33.644Z,4.02
2022-08-17T01:18:09.974Z,4.02
2022-08-17T01:19:46.297Z,4
2022-08-17T01:21:22.628Z,4.02
2022-08-17T01:22:58.961Z,4.02
2022-08-17T01:24:35.297Z,4.02
2022-08-17T01:26:11.622Z,4.02
2022-08-17T01:27:47.977Z,4.02
2022-08-17T01:29:24.289Z,4.02
2022-08-17T01:31:00.619Z,4
2022-08-17T01:32:35.965Z,4.02
2022-08-17T01:34:12.296Z,4.02
2022-08-17T01:35:48.615Z,4
2022-08-17T01:37:24.963Z,4.02
2022-08-17T01:39:01.287Z,4.02
2022-08-17T01:40:37.622Z,4.02
2022-08-17T01:42:13.954Z,4.02
2022-08-17T01:43:50.284Z,4.02
2022-08-17T01:45:26.614Z,4
2022-08-17T01:47:02.948Z,4.02
2022-08-17T01:48:39.271Z,4
2022-08-17T01:50:15.607Z,4
2022-08-17T01:51:51.926Z,4
2022-08-17T01:53:27.280Z,4.02
2022-08-17T01:55:03.612Z,4.02
2022-08-17T01:56:39.943Z,4.02
2022-08-17T01:58:16.274Z,4.02
2022-08-17T01:59:52.626Z,4.02
2022-08-17T02:01:28.926Z,4.02
2022-08-17T02:03:05.271Z,4.02
2022-08-17T02:04:41.604Z,4
2022-08-17T02:06:17.944Z,4
2022-08-17T02:07:54.253Z,4.02
2022-08-17T02:09:30.592Z,4
2022-08-17T02:11:06.920Z,4.02
2022-08-17T02:12:43.259Z,4
2022-08-17T02:14:18.605Z,4
2022-08-17T02:15:54.931Z,4
2022-08-17T02:17:31.260Z,4.02
2022-08-17T02:19:07.598Z,4
2022-08-17T02:20:43.923Z,4.02
2022-08-17T02:22:20.250Z,4
2022-08-17T02:23:56.582Z,4
2022-08-17T02:25:32.910Z,4
2022-08-17T02:27:09.242Z,4
2022-08-17T02:28:45.600Z,4.02
2022-08-17T02:30:21.905Z,4
2022-08-17T02:31:58.238Z,4
2022-08-17T02:33:34.568Z,4
2022-08-17T02:35:09.917Z,4
2022-08-17T02:36:46.243Z,4
2022-08-17T02:38:22.572Z,4
2022-08-17T02:39:58.913Z,4.02
2022-08-17T02:41:35.255Z,4
2022-08-17T02:43:11.569Z,4
2022-08-17T02:44:47.899Z,4.02
2022-08-17T02:46:24.229Z,4
2022-08-17T02:48:00.555Z,4
2022-08-17T02:49:36.898Z,4
2022-08-17T02:51:13.229Z,4
2022-08-17T02:52:49.553Z,4
2022-08-17T02:54:25.882Z,4
2022-08-17T02:56:01.235Z,4
2022-08-17T02:57:37.580Z,4
2022-08-17T02:59:13.890Z,4
2022-08-17T03:00:50.223Z,4
2022-08-17T03:02:26.592Z,4
2022-08-17T03:04:02.887Z,4
2022-08-17T03:05:39.217Z,4
2022-08-17T03:07:15.553Z,4
2022-08-17T03:08:51.883Z,4
2022-08-17T03:10:28.212Z,4
2022-08-17T03:12:04.547Z,4
2022-08-17T03:13:40.867Z,4
2022-08-17T03:15:17.212Z,4
2022-08-17T03:16:52.549Z,4
2022-08-17T03:18:28.885Z,4
2022-08-17T03:20:05.220Z,4
2022-08-17T03:21:41.549Z,3.98
2022-08-17T03:23:17.875Z,4
2022-08-17T03:24:54.210Z,4
2022-08-17T03:26:30.540Z,3.98
2022-08-17T03:28:06.871Z,3.98
2022-08-17T03:29:43.200Z,3.98
2022-08-17T03:31:19.527Z,3.98
2022-08-17T03:32:55.866Z,3.98
2022-08-17T03:34:32.193Z,4
2022-08-17T03:36:08.528Z,4
2022-08-17T03:37:43.873Z,3.98
2022-08-17T03:39:20.210Z,4
2022-08-17T03:40:56.528Z,3.98
2022-08-17T03:42:32.864Z,3.98
2022-08-17T03:44:09.201Z,4
2022-08-17T03:45:45.530Z,4
2022-08-17T03:47:21.856Z,4
2022-08-17T03:48:58.186Z,4
2022-08-17T03:50:34.515Z,4
2022-08-17T03:52:10.852Z,3.98
2022-08-17T03:53:47.180Z,3.98
2022-08-17T03:55:23.514Z,4
2022-08-17T03:56:59.842Z,3.98
2022-08-17T03:58:35.189Z,4
2022-08-17T04:00:11.516Z,3.98
2022-08-17T04:01:47.851Z,3.98
2022-08-17T04:03:24.177Z,3.98
2022-08-17T04:05:00.507Z,3.98
2022-08-17T04:06:36.841Z,3.98
2022-08-17T04:08:13.169Z,3.98
2022-08-17T04:09:49.505Z,3.98
2022-08-17T04:11:25.848Z,3.98
2022-08-17T04:13:02.170Z,3.98
2022-08-17T04:14:38.498Z,3.98
2022-08-17T04:16:14.826Z,3.98
2022-08-17T04:17:51.161Z,3.98
2022-08-17T04:19:26.511Z,3.98
2022-08-17T04:21:02.834Z,3.98
2022-08-17T04:22:39.177Z,3.98
2022-08-17T04:24:15.506Z,3.98
2022-08-17T04:25:51.835Z,3.98
2022-08-17T04:27:28.159Z,3.98
2022-08-17T04:29:04.493Z,3.98
2022-08-17T04:30:40.835Z,3.98
2022-08-17T04:32:17.158Z,3.98
2022-08-17T04:33:53.491Z,3.98
2022-08-17T04:35:29.821Z,3.98
2022-08-17T04:37:06.143Z,3.98
2022-08-17T04:38:42.478Z,3.98
2022-08-17T04:40:18.810Z,3.98
2022-08-17T04:41:55.135Z,3.98
2022-08-17T04:43:30.489Z,4
2022-08-17T04:45:06.815Z,3.98
2022-08-17T04:46:43.145Z,3.98
2022-08-17T04:48:19.484Z,3.98
2022-08-17T04:49:55.811Z,3.98
2022-08-17T04:51:32.151Z,3.98
2022-08-17T04:53:08.470Z,3.98
2022-08-17T04:54:44.808Z,3.98
2022-08-17T04:56:21.135Z,3.98
2022-08-17T04:57:57.467Z,3.98
2022-08-17T04:59:33.792Z,4
2022-08-17T05:01:10.129Z,3.98
2022-08-17T05:02:46.465Z,3.98
2022-08-17T05:04:21.812Z,3.98
2022-08-17T05:05:58.134Z,3.98
2022-08-17T05:07:34.472Z,3.98
2022-08-17T05:09:10.802Z,3.98
2022-08-17T05:10:47.148Z,3.98
2022-08-17T05:12:23.463Z,4
2022-08-17T05:13:59.785Z,3.98
2022-08-17T05:15:36.125Z,3.98
2022-08-17T05:17:12.455Z,3.98
2022-08-17T05:18:48.791Z,3.98
2022-08-17T05:20:25.111Z,3.98
2022-08-17T05:22:01.446Z,3.98
2022-08-17T05:23:37.785Z,3.98
2022-08-17T05:25:13.126Z,4
2022-08-17T05:26:49.460Z,4
2022-08-17T05:28:25.786Z,3.98
2022-08-17T05:30:02.125Z,3.98
2022-08-17T05:31:38.444Z,3.98
2022-08-17T05:33:14.779Z,4
2022-08-17T05:34:51.114Z,3.98
2022-08-17T05:36:27.444Z,3.98
2022-08-17T05:38:03.769Z,4
2022-08-17T05:39:40.109Z,3.98
2022-08-17T05:41:16.443Z,3.98
2022-08-17T05:42:52.777Z,4
2022-08-17T05:44:29.097Z,4
2022-08-17T05:46:04.473Z,4
2022-08-17T05:47:40.774Z,3.98
2022-08-17T05:49:17.105Z,3.98
2022-08-17T05:50:53.434Z,4
2022-08-17T05:52:29.758Z,4
2022-08-17T05:54:06.098Z,4
2022-08-17T05:55:42.425Z,4
2022-08-17T05:57:18.759Z,4
2022-08-17T05:58:55.091Z,4.02
2022-08-17T06:00:31.417Z,4
2022-08-17T06:02:07.747Z,4.02
2022-08-17T06:03:44.081Z,4
2022-08-17T06:05:20.415Z,4
2022-08-17T06:06:55.758Z,4.02
2022-08-17T06:08:32.091Z,4.02
2022-08-17T06:10:08.421Z,4.02
2022-08-17T06:11:44.750Z,4
2022-08-17T06:13:20.121Z,4.02
2022-08-17T06:14:56.435Z,4.02
2022-08-17T06:16:32.768Z,4.02
2022-08-17T06:18:09.095Z,4.02
2022-08-17T06:19:45.427Z,4.02
2022-08-17T06:21:21.772Z,4.02
2022-08-17T06:22:58.096Z,4.02
2022-08-17T06:24:34.419Z,4.02
2022-08-17T06:26:10.746Z,4.02
2022-08-17T06:27:47.084Z,4.02
2022-08-17T06:29:23.419Z,4.02
2022-08-17T06:30:59.743Z,4.02
2022-08-17T06:32:36.075Z,4.02
2022-08-17T06:34:11.421Z,4.02
2022-08-17T06:35:47.753Z,4.02
2022-08-17T06:37:24.091Z,4.02
2022-08-17T06:39:00.414Z,4.02
2022-08-17T06:40:36.746Z,4.02
2022-08-17T06:42:13.074Z,4
2022-08-17T06:43:49.406Z,4.02
2022-08-17T06:45:25.735Z,4
2022-08-17T06:47:02.071Z,4.02
2022-08-17T06:48:38.405Z,4.02
2022-08-17T06:50:14.734Z,4.02
2022-08-17T06:51:51.080Z,4.02
2022-08-17T06:53:27.390Z,4.02
2022-08-17T06:55:02.747Z,4.02
2022-08-17T06:56:39.075Z,4.02
2022-08-17T06:58:15.398Z,4.02
2022-08-17T06:59:51.730Z,4.02
2022-08-17T07:01:28.059Z,4.02
2022-08-17T07:03:04.388Z,4.04
2022-08-17T07:04:40.718Z,4.02
2022-08-17T07:06:17.056Z,4.04
2022-08-17T07:07:53.381Z,4.02
2022-08-17T07:09:29.714Z,4.02
2022-08-17T07:11:06.051Z,4.02
2022-08-17T07:12:42.389Z,4.02
2022-08-17T07:14:18.706Z,4.02
2022-08-17T07:15:54.043Z,4.04
2022-08-17T07:17:30.381Z,4.04
2022-08-17T07:19:06.721Z,4.04
2022-08-17T07:20:43.045Z,4.04
2022-08-17T07:22:19.379Z,4.04
2022-08-17T07:23:55.700Z,4.02
2022-08-17T07:25:32.036Z,4.04
2022-08-17T07:27:08.371Z,4.06
2022-08-17T07:28:44.689Z,4.06
2022-08-17T07:30:21.020Z,4.06
2022-08-17T07:31:57.358Z,4.06
2022-08-17T07:33:33.700Z,4.04
2022-08-17T07:35:10.023Z,4.06
2022-08-17T07:36:46.346Z,4.06
2022-08-17T07:38:21.693Z,4.04
2022-08-17T07:39:58.027Z,4.06
2022-08-17T07:41:34.364Z,4.06
2022-08-17T07:43:10.680Z,4.14
2022-08-17T07:44:47.026Z,4.14
2022-08-17T07:46:23.351Z,4.14
2022-08-17T07:47:59.692Z,4.14
2022-08-17T07:49:36.011Z,4.14
2022-08-17T07:51:12.333Z,4.16
2022-08-17T07:52:48.672Z,4.16
2022-08-17T07:54:24.998Z,4.16
2022-08-17T07:56:01.344Z,4.16
2022-08-17T07:57:37.672Z,4.16
2022-08-17T07:59:13.011Z,4.08
2022-08-17T08:00:49.341Z,4.08
2022-08-17T08:02:25.673Z,4.1
2022-08-17T08:04:02.005Z,4.08
2022-08-17T08:05:38.333Z,4.08
2022-08-17T08:07:14.670Z,4.08
2022-08-17T08:08:50.996Z,4.16
2022-08-17T08:10:27.328Z,4.16
2022-08-17T08:12:03.654Z,4.16
2022-08-17T08:13:39.990Z,4.16
2022-08-17T08:15:16.316Z,4.16
2022-08-17T08:16:52.658Z,4.16
2022-08-17T08:18:28.985Z,4.16
2022-08-17T08:20:04.338Z,4.16
2022-08-17T08:21:40.653Z,4.16
2022-08-17T08:23:16.996Z,4.16
2022-08-17T08:24:53.325Z,4.16
2022-08-17T08:26:29.653Z,4.16
2022-08-17T08:28:05.981Z,4.16
2022-08-17T08:29:42.313Z,4.16
2022-08-17T08:31:18.642Z,4.16
2022-08-17T08:32:54.976Z,4.16
2022-08-17T08:34:31.308Z,4.16
2022-08-17T08:36:07.642Z,4.16
2022-08-17T08:37:43.968Z,4.16
2022-08-17T08:39:20.300Z,4.16
2022-08-17T08:40:55.650Z,4.16
2022-08-17T08:42:31.979Z,4.17
2022-08-17T08:44:08.309Z,4.16
2022-08-17T08:45:44.643Z,4.16
2022-08-17T08:47:20.970Z,4.16
2022-08-17T08:48:57.305Z,4.17
2022-08-17T08:50:33.639Z,4.16
2022-08-17T08:52:09.962Z,4.16
2022-08-17T08:53:46.291Z,4.17
2022-08-17T08:55:22.629Z,4.17
2022-08-17T08:56:58.954Z,4.17
2022-08-17T08:58:35.300Z,4.17
2022-08-17T09:00:11.613Z,4.17
2022-08-17T09:01:46.969Z,4.17
2022-08-17T09:03:23.293Z,4.17
2022-08-17T09:04:59.623Z,4.17
2022-08-17T09:06:35.959Z,4.17
2022-08-17T09:08:12.288Z,4.17
2022-08-17T09:09:48.617Z,4.17
2022-08-17T09:11:24.946Z,4.17
2022-08-17T09:13:01.280Z,4.14
2022-08-17T09:14:37.607Z,4.14
2022-08-17T09:16:13.940Z,4.12
2022-08-17T09:17:50.278Z,4.12
2022-08-17T09:19:26.601Z,4.12
2022-08-17T09:21:02.928Z,4.12
2022-08-17T09:22:39.269Z,4.12
2022-08-17T09:24:15.603Z,4.1
2022-08-17T09:25:51.933Z,4.12
2022-08-17T09:27:27.280Z,4.12
2022-08-17T09:29:03.607Z,4.1
2022-08-17T09:30:39.933Z,4.12
2022-08-17T09:32:16.263Z,4.1
2022-08-17T09:33:52.590Z,4.1
2022-08-17T09:35:28.925Z,4.1
2022-08-17T09:37:05.260Z,4.12
2022-08-17T09:38:41.590Z,4.12
2022-08-17T09:40:17.920Z,4.12
2022-08-17T09:41:54.245Z,4.12
2022-08-17T09:43:30.583Z,4.12
2022-08-17T09:45:06.933Z,4.1
2022-08-17T09:46:43.257Z,4.1
2022-08-17T09:48:18.594Z,4.1
2022-08-17T09:49:54.924Z,4.1
2022-08-17T09:51:31.261Z,4.1
2022-08-17T09:53:07.584Z,4.1
2022-08-17T09:54:43.907Z,4.1
2022-08-17T09:56:20.241Z,4.1
2022-08-17T09:57:56.586Z,4.1
2022-08-17T09:59:32.903Z,4.1
2022-08-17T10:01:09.233Z,4.1
2022-08-17T10:02:45.567Z,4.1
2022-08-17T10:04:21.899Z,4.1
2022-08-17T10:05:58.228Z,4.1
2022-08-17T10:07:34.559Z,4.1
2022-08-17T10:09:09.909Z,4.1
2022-08-17T10:10:46.243Z,4.1
2022-08-17T10:12:22.571Z,4.1
2022-08-17T10:13:58.895Z,4.1
2022-08-17T10:15:35.228Z,4.1
2022-08-17T10:17:11.564Z,4.1
2022-08-17T10:18:47.891Z,4.1
2022-08-17T10:20:24.246Z,4.1
2022-08-17T10:22:00.555Z,4.1
2022-08-17T10:23:36.887Z,4.1
2022-08-17T10:25:13.215Z,4.1
2022-08-17T10:26:49.553Z,4.1
2022-08-17T10:28:25.875Z,4.1
2022-08-17T10:30:01.226Z,4.08
2022-08-17T10:31:37.549Z,4.08
2022-08-17T10:33:13.893Z,4.08
2022-08-17T10:34:50.224Z,4.1
2022-08-17T10:36:26.552Z,4.1
2022-08-17T10:38:02.878Z,4.1
2022-08-17T10:39:39.209Z,4.1
2022-08-17T10:41:15.538Z,4.08
2022-08-17T10:42:51.871Z,4.1
2022-08-17T10:44:28.204Z,4.1
2022-08-17T10:46:04.533Z,4.1
2022-08-17T10:47:40.860Z,4.1
2022-08-17T10:49:17.195Z,4.1
2022-08-17T10:50:52.538Z,4.1
2022-08-17T10:52:28.869Z,4.08
2022-08-17T10:54:05.209Z,4.1
2022-08-17T10:55:41.533Z,4.1
2022-08-17T10:57:17.863Z,4.1
2022-08-17T10:58:54.194Z,4.1
2022-08-17T11:00:30.517Z,4.1
2022-08-17T11:02:06.849Z,4.1
2022-08-17T11:03:43.175Z,4.08
2022-08-17T11:05:19.534Z,4.1
2022-08-17T11:06:55.845Z,4.1
2022-08-17T11:08:32.173Z,4.08
2022-08-17T11:10:08.503Z,4.1
2022-08-17T11:11:44.842Z,4.08
2022-08-17T11:13:21.174Z,4.08
2022-08-17T11:14:57.499Z,4.08
2022-08-17T11:16:32.848Z,4.08
2022-08-17T11:18:09.188Z,4.08
2022-08-17T11:19:45.511Z,4.08
2022-08-17T11:21:21.835Z,4.08
2022-08-17T11:22:58.173Z,4.08
2022-08-17T11:24:34.520Z,4.08
2022-08-17T11:26:10.824Z,4.08
2022-08-17T11:27:47.167Z,4.08
2022-08-17T11:29:23.497Z,4.1
2022-08-17T11:30:59.814Z,4.1
2022-08-17T11:32:36.162Z,4.1
2022-08-17T11:34:12.490Z,4.1
2022-08-17T11:35:48.829Z,4.1
2022-08-17T11:37:25.138Z,4.1
2022-08-17T11:39:00.496Z,4.1
2022-08-17T11:40:36.824Z,4.1
2022-08-17T11:42:13.162Z,4.1
2022-08-17T11:43:49.498Z,4.1
2022-08-17T11:45:25.821Z,4.1
2022-08-17T11:47:02.149Z,4.1
2022-08-17T11:48:38.476Z,4.1
2022-08-17T11:50:14.821Z,4.1
2022-08-17T11:51:51.157Z,4.1
2022-08-17T11:53:27.470Z,4.1
2022-08-17T11:55:03.808Z,4.1
2022-08-17T11:56:40.134Z,4.1
2022-08-17T11:58:16.468Z,4.1
2022-08-17T11:59:52.805Z,4.1
2022-08-17T12:01:28.158Z,4.1
2022-08-17T12:03:04.481Z,4.1
2022-08-17T12:04:40.808Z,4.1
2022-08-17T12:06:17.133Z,4.1
2022-08-17T12:07:53.465Z,4.1
2022-08-17T12:09:29.799Z,4.16
2022-08-17T12:11:06.131Z,4.16
2022-08-17T12:12:42.460Z,4.17
2022-08-17T12:14:18.793Z,4.16
2022-08-17T12:15:55.121Z,4.17
2022-08-17T12:17:31.455Z,4.17
2022-08-17T12:19:07.781Z,4.17
2022-08-17T12:20:44.116Z,4.17
2022-08-17T12:22:19.486Z,4.17
2022-08-17T12:23:55.798Z,4.17
2022-08-17T12:25:32.122Z,4.17
2022-08-17T12:27:08.450Z,4.17
2022-08-17T12:28:44.787Z,4.17
2022-08-17T12:30:21.111Z,4.17
2022-08-17T12:31:57.439Z,4.17
2022-08-17T12:33:33.800Z,4.17
2022-08-17T12:35:10.112Z,4.17
2022-08-17T12:36:46.444Z,4.17
2022-08-17T12:38:22.767Z,4.17
2022-08-17T12:39:59.098Z,4.17
2022-08-17T12:41:35.431Z,4.17
2022-08-17T12:43:10.776Z,4.17
2022-08-17T12:44:47.109Z,4.17
2022-08-17T12:46:23.438Z,4.17
2022-08-17T12:47:59.770Z,4.17
2022-08-17T12:49:36.101Z,4.17
2022-08-17T12:51:11.460Z,4.17
2022-08-17T12:52:46.809Z,4.17
2022-08-17T12:54:23.130Z,4.17
2022-08-17T12:55:59.469Z,4.17
2022-08-17T12:57:35.802Z,4.17
2022-08-17T12:59:12.137Z,4.17
2022-08-17T13:00:48.474Z,4.17
2022-08-17T13:02:24.791Z,4.17
2022-08-17T13:04:01.128Z,4.17
2022-08-17T13:05:36.479Z,4.17
2022-08-17T13:07:12.815Z,4.17
2022-08-17T13:08:48.167Z,4.17
2022-08-17T13:10:24.486Z,4.17
2022-08-17T13:12:00.830Z,4.17
2022-08-17T13:13:37.154Z,4.17
2022-08-17T13:15:13.485Z,4.17
2022-08-17T13:16:49.812Z,4.17
2022-08-17T13:18:26.138Z,4.17
2022-08-17T13:20:02.483Z,4.17
2022-08-17T13:21:38.807Z,4.17
2022-08-17T13:23:15.135Z,4.17
2022-08-17T13:24:51.490Z,4.17
2022-08-17T13:26:27.797Z,4.17
2022-08-17T13:28:04.132Z,4.17
2022-08-17T13:29:39.480Z,4.17
2022-08-17T13:31:15.811Z,4.17
2022-08-17T13:32:52.145Z,4.17
2022-08-17T13:34:28.470Z,4.17
2022-08-17T13:36:04.802Z,4.17
2022-08-17T13:37:41.138Z,4.17
2022-08-17T13:39:17.465Z,4.17
2022-08-17T13:40:53.794Z,4.17
2022-08-17T13:42:30.121Z,4.17
2022-08-17T13:44:06.448Z,4.17
2022-08-17T13:45:42.783Z,4.17
2022-08-17T13:47:19.118Z,4.17
2022-08-17T13:48:55.448Z,4.17
2022-08-17T13:50:30.806Z,4.17
2022-08-17T13:52:07.129Z,4.17
2022-08-17T13:53:43.463Z,4.17
2022-08-17T13:55:19.813Z,4.17
2022-08-17T13:56:56.125Z,4.16
2022-08-17T13:58:32.454Z,4.16
2022-08-17T14:00:08.788Z,4.16
2022-08-17T14:01:45.124Z,4.16
2022-08-17T14:03:21.436Z,4.16
2022-08-17T14:04:57.776Z,4.16
2022-08-17T14:06:34.109Z,4.16
2022-08-17T14:08:10.441Z,4.16
2022-08-17T14:09:46.761Z,4.16
2022-08-17T14:11:23.103Z,4.16
2022-08-17T14:12:58.443Z,4.16
2022-08-17T14:14:34.776Z,4.16
2022-08-17T14:16:11.112Z,4.16
2022-08-17T14:17:47.439Z,4.16
2022-08-17T14:19:23.770Z,4.16
2022-08-17T14:21:00.096Z,4.16
2022-08-17T14:22:36.429Z,4.16
2022-08-17T14:24:12.760Z,4.14
2022-08-17T14:25:49.099Z,4.16
2022-08-17T14:27:25.421Z,4.16
2022-08-17T14:29:01.753Z,4.14
2022-08-17T14:30:38.089Z,4.14
2022-08-17T14:32:14.413Z,4.14
2022-08-17T14:33:49.763Z,4.14
2022-08-17T14:35:26.088Z,4.14
2022-08-17T14:37:02.417Z,4.14
2022-08-17T14:38:38.760Z,4.14
2022-08-17T14:40:15.107Z,4.14
2022-08-17T14:41:51.410Z,4.14
2022-08-17T14:43:27.750Z,4.14
2022-08-17T14:45:04.083Z,4.14
2022-08-17T14:46:40.411Z,4.14
2022-08-17T14:48:16.739Z,4.14
2022-08-17T14:49:53.065Z,4.14
2022-08-17T14:51:29.409Z,4.14
2022-08-17T14:53:05.737Z,4.14
2022-08-17T14:54:41.078Z,4.14
2022-08-17T14:56:17.414Z,4.14
2022-08-17T14:57:53.737Z,4.14
2022-08-17T14:59:30.069Z,4.14
2022-08-17T15:01:06.400Z,4.14
2022-08-17T15:02:42.740Z,4.14
2022-08-17T15:04:19.069Z,4.14
2022-08-17T15:05:55.388Z,4.14
2022-08-17T15:07:31.727Z,4.14
2022-08-17T15:09:08.053Z,4.14
2022-08-17T15:10:44.387Z,4.14
2022-08-17T15:12:20.724Z,4.14
2022-08-17T15:13:57.055Z,4.14
2022-08-17T15:15:32.404Z,4.14
2022-08-17T15:17:08.733Z,4.14
2022-08-17T15:18:45.072Z,4.14
2022-08-17T15:20:21.383Z,4.14
2022-08-17T15:21:57.715Z,4.14
2022-08-17T15:23:34.054Z,4.14
2022-08-17T15:25:10.387Z,4.14
2022-08-17T15:26:46.730Z,4.14
2022-08-17T15:28:23.048Z,4.14
2022-08-17T15:29:59.373Z,4.14
2022-08-17T15:31:35.709Z,4.14
2022-08-17T15:33:12.057Z,4.14
2022-08-17T15:34:48.379Z,4.14
2022-08-17T15:36:23.712Z,4.14
2022-08-17T15:38:00.052Z,4.14
2022-08-17T15:39:36.374Z,4.14
2022-08-17T15:41:12.717Z,4.14
2022-08-17T15:42:49.045Z,4.14
2022-08-17T15:44:25.374Z,4.14
2022-08-17T15:46:01.697Z,4.14
2022-08-17T15:47:38.039Z,4.14
2022-08-17T15:49:14.367Z,4.14
2022-08-17T15:50:50.699Z,4.14
2022-08-17T15:52:27.025Z,4.14
2022-08-17T15:54:03.348Z,4.14
2022-08-17T15:55:39.692Z,4.14
2022-08-17T15:57:16.025Z,4.14
2022-08-17T15:58:51.377Z,4.14
2022-08-17T16:00:27.690Z,4.14
2022-08-17T16:02:04.027Z,4.14
2022-08-17T16:03:40.360Z,4.14
2022-08-17T16:05:16.694Z,4.14
2022-08-17T16:06:53.050Z,4.14
2022-08-17T16:08:29.356Z,4.14
2022-08-17T16:10:05.689Z,4.14
2022-08-17T16:11:42.011Z,4.14
2022-08-17T16:13:18.339Z,4.14
2022-08-17T16:14:54.676Z,4.14
2022-08-17T16:16:31.007Z,4.12
2022-08-17T16:18:07.336Z,4.12
2022-08-17T16:19:42.688Z,4.12
2022-08-17T16:21:19.010Z,4.12
2022-08-17T16:22:55.343Z,4.12
2022-08-17T16:24:31.673Z,4.12
2022-08-17T16:26:08.019Z,4.12
2022-08-17T16:27:43.366Z,4.12
2022-08-17T16:29:19.702Z,4.12
2022-08-17T16:30:55.065Z,4.1
2022-08-17T16:32:31.382Z,4.12
2022-08-17T16:34:07.720Z,4.1
2022-08-17T16:35:44.041Z,4.1
2022-08-17T16:37:19.406Z,4.12
2022-08-17T16:38:54.738Z,4.12
2022-08-17T16:40:31.071Z,4.12
2022-08-17T16:42:07.405Z,4.12
2022-08-17T16:43:43.734Z,4.12
2022-08-17T16:45:20.065Z,4.12
2022-08-17T16:46:56.392Z,4.12
2022-08-17T16:48:32.723Z,4.12
2022-08-17T16:50:09.073Z,4.12
2022-08-17T16:51:45.388Z,4.12
2022-08-17T16:53:21.713Z,4.12
2022-08-17T16:54:58.046Z,4.12
2022-08-17T16:56:34.379Z,4.12
2022-08-17T16:58:10.738Z,4.12
2022-08-17T16:59:47.052Z,4.12
2022-08-17T17:01:22.389Z,4.12
2022-08-17T17:02:58.727Z,4.1
2022-08-17T17:04:35.066Z,4.12
2022-08-17T17:06:11.388Z,4.1
2022-08-17T17:07:47.719Z,4.1
2022-08-17T17:09:24.045Z,4.1
2022-08-17T17:11:00.373Z,4.1
2022-08-17T17:12:36.708Z,4.1
2022-08-17T17:14:13.040Z,4.1
2022-08-17T17:15:49.376Z,4.1
2022-08-17T17:17:25.702Z,4.1
2022-08-17T17:19:02.036Z,4.1
2022-08-17T17:20:38.371Z,4.1
2022-08-17T17:22:13.709Z,4.1
2022-08-17T17:23:50.041Z,4.1
2022-08-17T17:25:26.369Z,4.08
2022-08-17T17:27:02.717Z,4.1
2022-08-17T17:28:39.035Z,4.1
2022-08-17T17:30:15.365Z,4.1
2022-08-17T17:31:51.695Z,4.1
2022-08-17T17:33:28.030Z,4.1
2022-08-17T17:35:04.364Z,4.1
2022-08-17T17:36:40.690Z,4.1
2022-08-17T17:38:17.018Z,4.1
2022-08-17T17:39:53.346Z,4.1
2022-08-17T17:41:29.682Z,4.1
2022-08-17T17:43:06.016Z,4.1
2022-08-17T17:44:41.364Z,4.1
2022-08-17T17:46:17.696Z,4.1
2022-08-17T17:47:54.023Z,4.1
2022-08-17T17:49:30.353Z,4.1
2022-08-17T17:51:06.683Z,4.1
2022-08-17T17:52:43.017Z,4.08
2022-08-17T17:54:19.340Z,4.08
2022-08-17T17:55:55.678Z,4.08
2022-08-17T17:57:31.998Z,4.08
2022-08-17T17:59:08.330Z,4.08
2022-08-17T18:00:44.668Z,4.1
2022-08-17T18:02:21.002Z,4.08
2022-08-17T18:03:57.340Z,4.1
2022-08-17T18:05:32.681Z,4.08
2022-08-17T18:07:09.023Z,4.1
2022-08-17T18:08:45.338Z,4.08
2022-08-17T18:10:21.667Z,4.08
2022-08-17T18:11:57.994Z,4.08
2022-08-17T18:13:34.330Z,4.08
2022-08-17T18:15:10.663Z,4.08
2022-08-17T18:16:46.992Z,4.08
2022-08-17T18:18:23.318Z,4.08
2022-08-17T18:19:59.649Z,4.08
2022-08-17T18:21:35.995Z,4.08
2022-08-17T18:23:11.335Z,4.08
2022-08-17T18:24:46.697Z,4.08
2022-08-17T18:26:23.036Z,4.08
2022-08-17T18:27:59.349Z,4.08
2022-08-17T18:29:34.707Z,4.08
2022-08-17T18:31:10.068Z,4.08
2022-08-17T18:32:46.382Z,4.08
2022-08-17T18:34:22.716Z,4.08
2022-08-17T18:35:59.043Z,4.08
2022-08-17T18:37:35.381Z,4.08
2022-08-17T18:39:11.715Z,4.08
2022-08-17T18:40:48.051Z,4.08
2022-08-17T18:42:24.365Z,4.06
2022-08-17T18:44:00.695Z,4.08
2022-08-17T18:45:37.041Z,4.08
2022-08-17T18:47:13.364Z,4.06
2022-08-17T18:48:49.697Z,4.08
2022-08-17T18:50:26.020Z,4.08
2022-08-17T18:52:01.377Z,4.06
2022-08-17T18:53:37.702Z,4.08
2022-08-17T18:55:14.032Z,4.06
2022-08-17T18:56:50.356Z,4.08
2022-08-17T18:58:26.694Z,4.08
2022-08-17T19:00:03.022Z,4.08
2022-08-17T19:01:39.358Z,4.08
2022-08-17T19:03:15.691Z,4.06
2022-08-17T19:04:52.016Z,4.08
2022-08-17T19:06:28.350Z,4.08
2022-08-17T19:08:04.681Z,4.06
2022-08-17T19:09:41.012Z,4.06
2022-08-17T19:11:17.337Z,4.08
2022-08-17T19:12:53.665Z,4.08
2022-08-17T19:14:29.016Z,4.08
2022-08-17T19:16:05.357Z,4.06
2022-08-17T19:17:41.686Z,4.06
2022-08-17T19:19:18.010Z,4.08
2022-08-17T19:20:54.339Z,4.06
2022-08-17T19:22:30.685Z,4.08
2022-08-17T19:24:06.998Z,4.06
2022-08-17T19:25:43.343Z,4.06
2022-08-17T19:27:19.667Z,4.08
2022-08-17T19:28:55.997Z,4.06
2022-08-17T19:30:32.326Z,4.06
2022-08-17T19:32:08.652Z,4.06
2022-08-17T19:33:44.990Z,4.08
2022-08-17T19:35:21.325Z,4.06
2022-08-17T19:36:57.650Z,4.06
2022-08-17T19:38:33.984Z,4.06
2022-08-17T19:40:09.346Z,4.06
2022-08-17T19:41:45.658Z,4.06
2022-08-17T19:43:21.988Z,4.06
2022-08-17T19:44:58.323Z,4.06
2022-08-17T19:46:34.654Z,4.06
2022-08-17T19:48:10.983Z,4.06
2022-08-17T19:49:47.311Z,4.06
2022-08-17T19:51:23.663Z,4.08
2022-08-17T19:52:59.977Z,4.06
2022-08-17T19:54:36.307Z,4.06
2022-08-17T19:56:12.640Z,4.06
2022-08-17T19:57:48.968Z,4.06
2022-08-17T19:59:25.291Z,4.06
2022-08-17T20:01:00.640Z,4.06
2022-08-17T20:02:36.985Z,4.06
2022-08-17T20:04:13.300Z,4.06
2022-08-17T20:05:49.631Z,4.06
2022-08-17T20:07:25.970Z,4.06
2022-08-17T20:09:02.298Z,4.06
2022-08-17T20:10:38.629Z,4.06
2022-08-17T20:12:14.955Z,4.06
2022-08-17T20:13:51.294Z,4.06
2022-08-17T20:15:27.626Z,4.06
2022-08-17T20:17:03.948Z,4.06
2022-08-17T20:18:40.281Z,4.06
2022-08-17T20:20:16.612Z,4.06
2022-08-17T20:21:51.956Z,4.06
2022-08-17T20:23:28.287Z,4.06
2022-08-17T20:25:04.622Z,4.06
2022-08-17T20:26:40.945Z,4.06
2022-08-17T20:28:17.279Z,4.06
2022-08-17T20:29:53.612Z,4.06
2022-08-17T20:31:29.968Z,4.06
2022-08-17T20:33:06.270Z,4.06
2022-08-17T20:34:42.600Z,4.06
2022-08-17T20:36:18.926Z,4.06
2022-08-17T20:37:55.271Z,4.06
2022-08-17T20:39:31.618Z,4.06
2022-08-17T20:41:07.927Z,4.06
2022-08-17T20:42:44.254Z,4.06
2022-08-17T20:44:19.601Z,4.06
2022-08-17T20:45:55.926Z,4.06
2022-08-17T20:47:32.258Z,4.06
2022-08-17T20:49:08.602Z,4.06
2022-08-17T20:50:44.932Z,4.06
2022-08-17T20:52:21.253Z,4.06
2022-08-17T20:53:57.590Z,4.06
2022-08-17T20:55:33.918Z,4.06
2022-08-17T20:57:10.250Z,4.06
2022-08-17T20:58:46.623Z,4.06
2022-08-17T21:00:22.904Z,4.06
2022-08-17T21:01:59.243Z,4.06
2022-08-17T21:03:35.569Z,4.06
2022-08-17T21:05:10.922Z,4.06
2022-08-17T21:06:47.255Z,4.06
2022-08-17T21:08:23.589Z,4.06
2022-08-17T21:09:59.919Z,4.06
2022-08-17T21:11:36.246Z,4.06
2022-08-17T21:13:12.577Z,4.06
2022-08-17T21:14:48.912Z,4.06
2022-08-17T21:16:25.241Z,4.04
2022-08-17T21:18:01.570Z,4.06
2022-08-17T21:19:37.897Z,4.06
2022-08-17T21:21:14.225Z,4.06
2022-08-17T21:22:50.568Z,4.06
2022-08-17T21:24:26.894Z,4.06
2022-08-17T21:26:02.249Z,4.06
2022-08-17T21:27:37.597Z,4.04
2022-08-17T21:29:13.931Z,4.06
2022-08-17T21:30:50.265Z,4.06
2022-08-17T21:32:26.595Z,4.06
2022-08-17T21:34:02.921Z,4.04
2022-08-17T21:35:38.285Z,4.06
2022-08-17T21:37:13.637Z,4.06
2022-08-17T21:38:49.962Z,4.06
2022-08-17T21:40:26.284Z,4.06